Flugplatz Hamburg

Bericht für EDDH

vom 23.05. um 18:50 UTC

Wind 7 kt aus 200°

Sichtweite 10 km oder mehr

gute Sicht, keine Wolken < 5000 ft, keine CB, keine Wettererscheinungen (CAVOK)

Temperatur 17.0°C

Taupunkt 6.0°C

Luftfeuchtigkeit 48%

Luftdruck 1015 hPa

keine wesentliche Wetteränderung innerhalb den nächsten 2 Stunden zu erwarten

EDDH 231850Z 20007KT CAVOK 17/06 Q1015 NOSIG

Prognose für EDDH

vom 23.05. um 17:00 UTC

Zwischen 18:00 UTC und 07:00 UTC

Wind 4 kt aus 220°

Sichtweite 10 km oder mehr

keine signifikanten Wettererscheinungen

keine Wolken


Am 24.05. zwischen 07:00 und 09:00 UTC übergehend zu

Wind 12 kt aus 260°

Sichtweite 10 km oder mehr

keine signifikanten Wettererscheinungen

keine Wolken


Am 24.05. zwischen 12:00 UTC und 19:00 UTC zeitweise

Wind 15 kt aus 300° in Böen 25 kt


Am 24.05. zwischen 18:00 und 20:00 UTC übergehend zu

Wind 6 kt aus 270°

Sichtweite 10 km oder mehr

keine signifikanten Wettererscheinungen

keine Wolken


Am 24.05. zwischen 20:00 und 22:00 UTC übergehend zu

Wind 6 kt aus 270°

Sichtweite 10 km oder mehr

keine signifikanten Wettererscheinungen

aufgebrochene Bewölkung in 1400 ft

TAF EDDH 231700Z 2318/2424 22004KT CAVOK BECMG 2407/2409 26012KT TEMPO 2412/2419 30015G25KT BECMG 2418/2420 27006KT BECMG 2420/2422 BKN014
Impressum